createdAt,value
2022-11-10T00:01:08.890Z,76.57
2022-11-10T00:03:58.090Z,79.47
2022-11-10T00:06:44.762Z,78.18
2022-11-10T00:09:30.490Z,67.13
2022-11-10T00:12:16.235Z,75.97
2022-11-10T00:15:20.809Z,71.35
2022-11-10T00:18:06.126Z,69.57
2022-11-10T00:20:52.084Z,66.32
2022-11-10T00:23:37.609Z,71.00
2022-11-10T00:26:23.358Z,68.30
2022-11-10T00:29:08.949Z,152.77
2022-11-10T00:31:54.528Z,101.30
2022-11-10T00:34:40.150Z,77.35
2022-11-10T00:37:25.729Z,69.38
2022-11-10T00:40:14.365Z,71.47
2022-11-10T00:43:00.095Z,77.65
2022-11-10T00:45:47.309Z,69.25
2022-11-10T00:48:32.969Z,76.53
2022-11-10T00:51:24.396Z,73.30
2022-11-10T00:54:10.803Z,72.95
2022-11-10T00:56:56.093Z,67.97
2022-11-10T00:59:41.927Z,65.47
2022-11-10T01:02:28.513Z,69.05
2022-11-10T01:05:14.379Z,79.53
2022-11-10T01:08:00.674Z,70.90
2022-11-10T01:10:46.149Z,68.32
2022-11-10T01:13:32.346Z,76.25
2022-11-10T01:16:25.003Z,67.28
2022-11-10T01:19:10.586Z,66.30
2022-11-10T01:21:56.609Z,67.50
2022-11-10T01:24:42.181Z,67.07
2022-11-10T01:27:27.945Z,64.85
2022-11-10T01:30:13.576Z,71.93
2022-11-10T01:32:59.274Z,67.45
2022-11-10T01:35:46.022Z,67.97
2022-11-10T01:38:35.563Z,69.43
2022-11-10T01:41:21.078Z,75.05
2022-11-10T01:44:23.859Z,68.57
2022-11-10T01:47:09.387Z,73.15
2022-11-10T01:49:55.357Z,73.82
2022-11-10T01:52:43.920Z,70.07
2022-11-10T01:55:31.107Z,69.38
2022-11-10T01:58:20.922Z,74.43
2022-11-10T02:01:08.530Z,73.72
2022-11-10T02:03:58.990Z,79.97
2022-11-10T02:06:47.543Z,75.13
2022-11-10T02:09:33.491Z,73.20
2022-11-10T02:12:36.940Z,75.25
2022-11-10T02:15:23.344Z,74.53
2022-11-10T02:18:08.966Z,78.03
2022-11-10T02:20:54.916Z,78.03
2022-11-10T02:23:43.125Z,73.97
2022-11-10T02:26:30.182Z,71.28
2022-11-10T02:29:16.040Z,73.10
2022-11-10T02:32:01.641Z,72.22
2022-11-10T02:34:47.468Z,78.00
2022-11-10T02:37:33.621Z,79.20
2022-11-10T02:40:19.266Z,75.22
2022-11-10T02:43:06.636Z,77.05
2022-11-10T02:45:52.547Z,75.50
2022-11-10T02:48:38.127Z,81.15
2022-11-10T02:51:23.820Z,72.82
2022-11-10T02:54:09.525Z,72.93
2022-11-10T02:56:55.028Z,72.25
2022-11-10T02:59:40.814Z,66.35
2022-11-10T03:02:31.178Z,68.40
2022-11-10T03:05:17.877Z,69.13
2022-11-10T03:08:04.101Z,69.18
2022-11-10T03:10:54.141Z,70.00
2022-11-10T03:13:58.999Z,67.50
2022-11-10T03:16:45.378Z,68.07
2022-11-10T03:19:31.088Z,66.50
2022-11-10T03:22:16.653Z,67.93
2022-11-10T03:25:02.512Z,72.68
2022-11-10T03:27:48.198Z,66.88
2022-11-10T03:30:34.000Z,70.65
2022-11-10T03:33:19.717Z,70.90
2022-11-10T03:36:06.391Z,63.38
2022-11-10T03:38:52.018Z,67.57
2022-11-10T03:41:38.006Z,60.85
2022-11-10T03:44:23.768Z,60.60
2022-11-10T03:47:09.468Z,71.25
2022-11-10T03:49:55.252Z,68.40
2022-11-10T03:52:42.561Z,77.68
2022-11-10T03:55:27.886Z,68.03
2022-11-10T03:58:13.522Z,75.82
2022-11-10T04:00:59.275Z,68.75
2022-11-10T04:03:50.187Z,67.88
2022-11-10T04:06:55.479Z,65.05
2022-11-10T04:09:41.278Z,62.63
2022-11-10T04:12:45.519Z,68.47
2022-11-10T04:15:43.435Z,101.03
2022-11-10T04:18:29.870Z,67.53
2022-11-10T04:21:15.814Z,79.97
2022-11-10T04:26:48.637Z,164.32
2022-11-10T04:29:34.471Z,137.98
2022-11-10T04:32:19.942Z,186.02
2022-11-10T04:35:05.539Z,229.27
2022-11-10T04:37:51.239Z,87.18
2022-11-10T04:40:36.786Z,111.13
2022-11-10T04:43:22.951Z,84.05
2022-11-10T04:46:20.091Z,66.20
2022-11-10T04:49:06.998Z,90.00
2022-11-10T04:51:52.678Z,73.50
2022-11-10T04:54:38.587Z,75.28
2022-11-10T04:57:24.221Z,70.60
2022-11-10T05:00:10.596Z,74.65
2022-11-10T05:02:58.425Z,67.68
2022-11-10T05:05:44.217Z,62.70
2022-11-10T05:08:29.838Z,67.20
2022-11-10T05:11:15.764Z,68.85
2022-11-10T05:14:01.220Z,69.05
2022-11-10T05:16:46.735Z,67.38
2022-11-10T05:19:32.353Z,68.82
2022-11-10T05:22:17.962Z,67.95
2022-11-10T05:25:03.718Z,72.07
2022-11-10T05:27:49.393Z,65.90
2022-11-10T05:30:35.669Z,75.45
2022-11-10T05:33:21.786Z,71.65
2022-11-10T05:36:08.571Z,65.40
2022-11-10T05:38:54.176Z,71.97
2022-11-10T05:41:40.530Z,73.53
2022-11-10T05:44:26.380Z,68.10
2022-11-10T05:47:16.042Z,63.10
2022-11-10T05:50:02.473Z,66.07
2022-11-10T05:52:51.305Z,63.63
2022-11-10T05:55:37.843Z,62.45
2022-11-10T05:58:23.307Z,67.68
2022-11-10T06:01:08.878Z,67.30
2022-11-10T06:03:54.500Z,65.25
2022-11-10T06:06:40.214Z,70.72
2022-11-10T06:09:25.696Z,68.50
2022-11-10T06:12:11.167Z,77.70
2022-11-10T06:14:59.645Z,71.90
2022-11-10T06:17:46.163Z,73.07
2022-11-10T06:20:32.252Z,75.68
2022-11-10T06:23:20.916Z,68.10
2022-11-10T06:26:06.868Z,68.63
2022-11-10T06:28:52.859Z,67.75
2022-11-10T06:31:38.540Z,81.15
2022-11-10T06:34:24.199Z,66.75
2022-11-10T06:37:10.012Z,70.95
2022-11-10T06:39:55.876Z,70.68
2022-11-10T06:42:41.558Z,64.03
2022-11-10T06:45:28.606Z,64.55
2022-11-10T06:48:14.388Z,59.35
2022-11-10T06:51:01.481Z,71.53
2022-11-10T06:53:47.650Z,67.70
2022-11-10T06:56:33.417Z,71.82
2022-11-10T06:59:18.871Z,70.95
2022-11-10T07:02:06.457Z,71.72
2022-11-10T07:04:52.150Z,72.30
2022-11-10T07:07:37.858Z,106.07
2022-11-10T07:13:09.970Z,76.05
2022-11-10T07:15:55.652Z,76.10
2022-11-10T07:18:41.154Z,150.30
2022-11-10T07:21:27.955Z,102.65
2022-11-10T07:24:16.591Z,89.78
2022-11-10T07:27:02.237Z,77.82
2022-11-10T07:29:48.260Z,96.95
2022-11-10T07:32:34.051Z,106.80
2022-11-10T07:35:19.653Z,72.65
2022-11-10T07:38:08.045Z,87.47
2022-11-10T07:40:54.116Z,81.63
2022-11-10T07:43:39.359Z,71.78
2022-11-10T07:46:25.276Z,70.80
2022-11-10T07:49:10.653Z,60.80
2022-11-10T07:51:56.777Z,57.00
2022-11-10T07:54:42.470Z,84.78
2022-11-10T07:57:28.436Z,72.68
2022-11-10T08:00:14.477Z,67.60
2022-11-10T08:03:09.945Z,59.08
2022-11-10T08:05:56.329Z,54.00
2022-11-10T08:08:42.304Z,51.13
2022-11-10T08:11:27.986Z,53.10
2022-11-10T08:14:13.728Z,51.05
2022-11-10T08:16:59.461Z,54.08
2022-11-10T08:19:45.682Z,66.35
2022-11-10T08:22:31.170Z,52.03
2022-11-10T08:25:16.805Z,87.72
2022-11-10T08:28:05.172Z,64.53
2022-11-10T08:30:51.013Z,66.68
2022-11-10T08:33:36.638Z,50.25
2022-11-10T08:36:22.625Z,53.88
2022-11-10T08:39:08.330Z,51.22
2022-11-10T08:41:54.274Z,39.67
2022-11-10T08:44:39.944Z,50.83
2022-11-10T08:47:25.497Z,57.15
2022-11-10T08:50:11.134Z,68.30
2022-11-10T08:53:07.904Z,59.92
2022-11-10T08:55:53.974Z,56.38
2022-11-10T08:58:48.540Z,54.05
2022-11-10T09:01:38.311Z,75.75
2022-11-10T09:04:24.003Z,64.88
2022-11-10T09:07:09.904Z,70.90
2022-11-10T09:10:06.601Z,50.50
2022-11-10T09:12:53.568Z,64.00
2022-11-10T09:15:40.318Z,47.28
2022-11-10T09:18:25.899Z,45.50
2022-11-10T09:21:12.915Z,42.53
2022-11-10T09:23:58.580Z,38.38
2022-11-10T09:26:47.562Z,45.42
2022-11-10T09:29:33.852Z,36.35
2022-11-10T09:32:19.684Z,43.28
2022-11-10T09:35:05.773Z,37.35
2022-11-10T09:37:51.435Z,34.10
2022-11-10T09:40:58.837Z,29.95
2022-11-10T09:44:12.143Z,35.88
2022-11-10T09:47:12.468Z,39.17
2022-11-10T09:50:02.986Z,43.08
2022-11-10T09:52:50.105Z,26.92
2022-11-10T09:55:50.989Z,39.58
2022-11-10T09:58:43.430Z,55.17
2022-11-10T10:01:50.081Z,38.58
2022-11-10T10:04:53.258Z,42.58
2022-11-10T10:08:06.691Z,46.35
2022-11-10T10:10:55.653Z,30.52
2022-11-10T10:14:09.179Z,45.53
2022-11-10T10:17:04.373Z,38.83
2022-11-10T10:20:02.832Z,28.38
2022-11-10T10:22:52.881Z,32.03
2022-11-10T10:25:41.457Z,39.22
2022-11-10T10:28:39.044Z,30.40
2022-11-10T10:31:30.352Z,30.27
2022-11-10T10:34:27.295Z,23.63
2022-11-10T10:37:32.677Z,24.63
2022-11-10T10:40:21.741Z,30.13
2022-11-10T10:43:07.618Z,23.27
2022-11-10T10:46:18.698Z,20.77
2022-11-10T10:49:27.847Z,16.38
2022-11-10T10:52:24.812Z,16.67
2022-11-10T10:55:13.098Z,16.85
2022-11-10T10:58:21.413Z,21.85
2022-11-10T11:01:16.880Z,18.73
2022-11-10T11:04:25.128Z,14.43
2022-11-10T11:07:23.179Z,16.67
2022-11-10T11:10:22.948Z,14.80
2022-11-10T11:13:20.808Z,14.73
2022-11-10T11:16:09.149Z,16.65
2022-11-10T11:18:55.104Z,17.27
2022-11-10T11:21:52.600Z,19.35
2022-11-10T11:24:42.641Z,12.30
2022-11-10T11:27:58.673Z,17.25
2022-11-10T11:34:10.626Z,12.95
2022-11-10T11:37:00.801Z,43.30
2022-11-10T11:40:00.187Z,18.95
2022-11-10T11:43:06.990Z,15.23
2022-11-10T11:46:14.962Z,20.58
2022-11-10T11:49:38.184Z,14.45
2022-11-10T11:52:54.347Z,15.10
2022-11-10T11:55:58.493Z,24.90
2022-11-10T11:58:51.604Z,12.95
2022-11-10T12:02:24.628Z,13.82
2022-11-10T12:05:29.344Z,15.70
2022-11-10T12:08:23.922Z,13.77
2022-11-10T12:11:34.582Z,13.45
2022-11-10T12:14:42.989Z,13.95
2022-11-10T12:17:53.442Z,13.75
2022-11-10T12:20:47.873Z,14.00
2022-11-10T12:23:47.973Z,18.48
2022-11-10T12:26:43.422Z,14.68
2022-11-10T12:29:33.592Z,15.77
2022-11-10T12:32:40.071Z,31.20
2022-11-10T12:35:34.051Z,14.38
2022-11-10T12:38:46.364Z,11.23
2022-11-10T12:41:46.301Z,14.55
2022-11-10T12:44:59.732Z,11.13
2022-11-10T12:47:47.174Z,21.45
2022-11-10T12:50:35.715Z,24.20
2022-11-10T12:53:30.476Z,16.67
2022-11-10T12:56:30.169Z,21.50
2022-11-10T12:59:24.564Z,25.40
2022-11-10T13:02:16.699Z,16.25
2022-11-10T13:05:14.322Z,30.45
2022-11-10T13:08:25.524Z,37.60
2022-11-10T13:11:11.301Z,18.40
2022-11-10T13:13:59.907Z,21.60
2022-11-10T13:16:54.593Z,22.15
2022-11-10T13:19:43.771Z,27.95
2022-11-10T13:22:41.061Z,25.20
2022-11-10T13:25:36.608Z,25.20
2022-11-10T13:28:46.986Z,15.38
2022-11-10T13:31:32.739Z,10.55
2022-11-10T13:34:21.437Z,12.43
2022-11-10T13:37:34.745Z,11.55
2022-11-10T13:40:23.377Z,10.55
2022-11-10T13:43:25.725Z,14.07
2022-11-10T13:46:11.340Z,9.32
2022-11-10T13:49:21.658Z,9.55
2022-11-10T13:52:27.599Z,13.52
2022-11-10T13:55:22.780Z,28.80
2022-11-10T13:58:18.839Z,19.80
2022-11-10T14:01:30.314Z,19.77
2022-11-10T14:04:45.213Z,19.63
2022-11-10T14:07:42.983Z,13.15
2022-11-10T14:10:49.522Z,13.25
2022-11-10T14:13:41.719Z,18.15
2022-11-10T14:16:31.608Z,20.90
2022-11-10T14:19:40.088Z,20.50
2022-11-10T14:22:44.808Z,14.43
2022-11-10T14:25:41.141Z,12.82
2022-11-10T14:28:32.861Z,17.90
2022-11-10T14:31:24.881Z,15.20
2022-11-10T14:34:15.661Z,23.75
2022-11-10T14:37:03.427Z,13.60
2022-11-10T14:39:52.149Z,19.52
2022-11-10T14:42:39.269Z,23.83
2022-11-10T14:45:29.441Z,22.95
2022-11-10T14:48:20.961Z,19.13
2022-11-10T14:51:19.459Z,28.30
2022-11-10T14:54:10.353Z,29.67
2022-11-10T14:56:57.104Z,23.42
2022-11-10T14:59:42.806Z,28.95
2022-11-10T15:02:28.565Z,49.60
2022-11-10T15:05:15.754Z,64.95
2022-11-10T15:08:04.075Z,60.58
2022-11-10T15:10:53.219Z,30.70
2022-11-10T15:13:39.960Z,27.48
2022-11-10T15:16:39.820Z,24.85
2022-11-10T15:19:32.173Z,25.92
2022-11-10T15:22:23.688Z,27.58
2022-11-10T15:25:15.659Z,29.25
2022-11-10T15:28:06.761Z,22.25
2022-11-10T15:30:56.404Z,39.60
2022-11-10T15:33:47.132Z,38.00
2022-11-10T15:36:35.603Z,50.33
2022-11-10T15:39:26.673Z,45.45
2022-11-10T15:42:21.919Z,46.30
2022-11-10T15:45:07.914Z,51.72
2022-11-10T15:47:53.421Z,58.38
2022-11-10T15:50:39.624Z,54.75
2022-11-10T15:53:28.088Z,87.35
2022-11-10T15:56:20.460Z,78.50
2022-11-10T15:59:06.129Z,72.60
2022-11-10T16:01:51.937Z,59.63
2022-11-10T16:04:37.338Z,59.13
2022-11-10T16:07:23.644Z,78.43
2022-11-10T16:10:09.453Z,124.55
2022-11-10T16:12:55.418Z,100.68
2022-11-10T16:15:44.621Z,88.13
2022-11-10T16:18:31.173Z,83.63
2022-11-10T16:21:19.951Z,75.53
2022-11-10T16:24:06.001Z,84.25
2022-11-10T16:26:51.365Z,82.40
2022-11-10T16:29:37.958Z,100.60
2022-11-10T16:32:24.016Z,76.60
2022-11-10T16:35:14.118Z,65.55
2022-11-10T16:37:59.481Z,78.75
2022-11-10T16:40:53.204Z,78.57
2022-11-10T16:43:40.860Z,65.97
2022-11-10T16:46:29.775Z,51.17
2022-11-10T16:49:28.111Z,39.40
2022-11-10T16:52:15.940Z,41.22
2022-11-10T16:55:01.546Z,47.13
2022-11-10T16:57:48.407Z,44.25
2022-11-10T17:00:34.225Z,48.92
2022-11-10T17:03:50.776Z,47.63
2022-11-10T17:06:36.577Z,59.45
2022-11-10T17:09:25.630Z,51.05
2022-11-10T17:12:13.465Z,58.30
2022-11-10T17:14:59.012Z,75.10
2022-11-10T17:17:47.122Z,90.75
2022-11-10T17:20:36.213Z,42.63
2022-11-10T17:23:24.333Z,34.65
2022-11-10T17:26:15.464Z,45.03
2022-11-10T17:29:01.101Z,61.80
2022-11-10T17:31:47.442Z,51.22
2022-11-10T17:34:33.089Z,49.72
2022-11-10T17:37:19.140Z,44.30
2022-11-10T17:40:26.303Z,38.30
2022-11-10T17:43:13.626Z,42.13
2022-11-10T17:45:59.200Z,55.05
2022-11-10T17:48:46.924Z,54.38
2022-11-10T17:51:33.909Z,59.25
2022-11-10T17:54:19.768Z,50.78
2022-11-10T17:59:51.898Z,79.70
2022-11-10T18:02:37.304Z,49.80
2022-11-10T18:05:23.339Z,41.20
2022-11-10T18:08:11.714Z,45.55
2022-11-10T18:11:00.750Z,59.63
2022-11-10T18:13:46.348Z,43.53
2022-11-10T18:16:32.841Z,69.25
2022-11-10T18:19:20.606Z,61.13
2022-11-10T18:22:08.267Z,113.07
2022-11-10T18:24:53.839Z,116.97
2022-11-10T18:27:40.218Z,90.35
2022-11-10T18:30:25.594Z,96.97
2022-11-10T18:33:12.652Z,73.13
2022-11-10T18:36:01.062Z,58.30
2022-11-10T18:38:47.312Z,45.47
2022-11-10T18:41:52.330Z,58.97
2022-11-10T18:44:38.643Z,68.90
2022-11-10T18:47:24.218Z,62.08
2022-11-10T18:50:10.215Z,53.10
2022-11-10T18:52:55.829Z,52.20
2022-11-10T18:55:45.413Z,45.45
2022-11-10T18:58:31.237Z,55.63
2022-11-10T19:01:17.283Z,52.53
2022-11-10T19:04:03.112Z,63.95
2022-11-10T19:06:48.880Z,82.82
2022-11-10T19:09:34.436Z,112.95
2022-11-10T19:12:26.399Z,70.93
2022-11-10T19:15:12.691Z,78.45
2022-11-10T19:17:58.332Z,60.22
2022-11-10T19:20:43.924Z,59.10
2022-11-10T19:23:29.722Z,55.22
2022-11-10T19:26:22.849Z,56.67
2022-11-10T19:29:09.403Z,44.90
2022-11-10T19:31:55.186Z,58.80
2022-11-10T19:34:40.980Z,64.88
2022-11-10T19:40:19.567Z,57.15
2022-11-10T19:43:05.471Z,97.10
2022-11-10T19:45:51.516Z,88.30
2022-11-10T19:48:37.306Z,96.65
2022-11-10T19:51:24.734Z,79.85
2022-11-10T19:54:15.762Z,63.38
2022-11-10T19:57:01.905Z,72.28
2022-11-10T19:59:49.473Z,71.15
2022-11-10T20:02:35.585Z,71.40
2022-11-10T20:05:22.212Z,153.82
2022-11-10T20:08:12.100Z,90.28
2022-11-10T20:11:12.291Z,95.72
2022-11-10T20:14:02.054Z,90.55
2022-11-10T20:16:47.567Z,67.03
2022-11-10T20:19:40.804Z,52.67
2022-11-10T20:22:27.255Z,53.25
2022-11-10T20:25:13.358Z,41.85
2022-11-10T20:28:03.413Z,38.92
2022-11-10T20:30:49.180Z,48.65
2022-11-10T20:33:35.835Z,51.33
2022-11-10T20:36:27.596Z,54.03
2022-11-10T20:39:13.465Z,59.22
2022-11-10T20:42:03.362Z,53.35
2022-11-10T20:44:49.038Z,60.28
2022-11-10T20:47:34.891Z,55.22
2022-11-10T20:50:24.634Z,64.85
2022-11-10T20:53:10.810Z,62.50
2022-11-10T20:56:02.633Z,69.75
2022-11-10T20:58:49.163Z,67.15
2022-11-10T21:01:37.919Z,78.57
2022-11-10T21:04:24.561Z,68.78
2022-11-10T21:07:10.301Z,81.13
2022-11-10T21:09:56.632Z,76.70
2022-11-10T21:12:51.339Z,73.40
2022-11-10T21:15:39.692Z,75.67
2022-11-10T21:18:27.923Z,63.70
2022-11-10T21:21:26.310Z,77.57
2022-11-10T21:24:12.038Z,70.32
2022-11-10T21:26:58.532Z,56.65
2022-11-10T21:29:44.648Z,48.80
2022-11-10T21:32:30.699Z,60.63
2022-11-10T21:35:16.782Z,52.47
2022-11-10T21:38:03.495Z,49.05
2022-11-10T21:40:49.196Z,60.47
2022-11-10T21:43:35.430Z,66.95
2022-11-10T21:46:21.026Z,76.28
2022-11-10T21:49:08.301Z,75.60
2022-11-10T21:51:54.103Z,85.47
2022-11-10T21:54:42.861Z,78.10
2022-11-10T21:57:28.466Z,97.35
2022-11-10T22:00:14.713Z,84.85
2022-11-10T22:03:01.479Z,80.43
2022-11-10T22:05:47.096Z,78.80
2022-11-10T22:08:34.037Z,79.22
2022-11-10T22:11:40.101Z,76.70
2022-11-10T22:14:44.554Z,83.15
2022-11-10T22:17:49.074Z,87.18
2022-11-10T22:20:34.647Z,100.00
2022-11-10T22:23:40.286Z,81.03
2022-11-10T22:26:25.826Z,74.20
2022-11-10T22:29:11.808Z,68.18
2022-11-10T22:31:58.852Z,83.70
2022-11-10T22:34:45.102Z,66.70
2022-11-10T22:37:33.072Z,62.63
2022-11-10T22:40:38.548Z,54.35
2022-11-10T22:43:46.905Z,59.53
2022-11-10T22:46:45.867Z,59.25
2022-11-10T22:49:31.235Z,60.65
2022-11-10T22:52:17.076Z,49.78
2022-11-10T22:55:02.780Z,46.45
2022-11-10T22:57:51.426Z,42.95
2022-11-10T23:00:37.272Z,44.22
2022-11-10T23:03:23.388Z,45.33
2022-11-10T23:06:10.194Z,49.50
2022-11-10T23:08:57.275Z,48.30
2022-11-10T23:11:42.441Z,48.10
2022-11-10T23:14:28.018Z,48.88
2022-11-10T23:17:13.421Z,45.58
2022-11-10T23:19:59.238Z,52.13
2022-11-10T23:22:44.918Z,60.63
2022-11-10T23:25:30.724Z,63.03
2022-11-10T23:28:16.469Z,59.72
2022-11-10T23:31:09.057Z,46.92
2022-11-10T23:33:56.797Z,50.70
2022-11-10T23:36:42.692Z,49.00
2022-11-10T23:42:13.908Z,46.60
2022-11-10T23:44:59.540Z,51.72
2022-11-10T23:47:45.196Z,49.17
2022-11-10T23:50:30.761Z,50.35
2022-11-10T23:53:17.510Z,48.38
2022-11-10T23:56:06.144Z,46.53
2022-11-10T23:58:51.705Z,42.78
